Time,TemperatureF,DewpointF,PressureIn,WindDirection,WindDirectionDegrees,WindSpeedMPH,WindSpeedGustMPH,Humidity,HourlyPrecipIn,Conditions,Clouds,dailyrainin,SoftwareType,DateUTC
2013-02-01 00:02:00,5.0,-1.0,30.60,NW,317,0.0,0.0,74,0.00,,,0.00,,2013-02-01 06:02:00,
2013-02-01 00:11:00,5.0,-1.0,30.60,NW,317,0.0,0.0,74,0.00,,,0.00,,2013-02-01 06:11:00,
2013-02-01 00:22:00,5.0,-1.0,30.60,NW,318,0.0,1.0,75,0.00,,,0.00,,2013-02-01 06:22:00,
2013-02-01 00:32:00,5.0,-1.0,30.60,NW,317,0.0,0.0,75,0.00,,,0.00,,2013-02-01 06:32:00,
2013-02-01 00:42:00,5.0,-1.0,30.60,NW,317,0.0,0.0,75,0.00,,,0.00,,2013-02-01 06:42:00,
2013-02-01 00:52:00,4.0,-2.0,30.60,NW,317,0.0,0.0,76,0.00,,,0.00,,2013-02-01 06:52:00,
2013-02-01 01:02:00,4.0,-2.0,30.60,NW,318,0.0,0.0,77,0.00,,,0.00,,2013-02-01 07:02:00,
2013-02-01 01:12:00,4.0,-2.0,30.60,NW,317,0.0,2.0,77,0.00,,,0.00,,2013-02-01 07:12:00,
2013-02-01 01:22:00,4.0,-2.0,30.60,NW,317,0.0,2.0,77,0.00,,,0.00,,2013-02-01 07:22:00,
2013-02-01 01:32:00,4.0,-2.0,30.60,NW,317,0.0,2.0,77,0.00,,,0.00,,2013-02-01 07:32:00,
2013-02-01 01:42:00,4.0,-2.0,30.60,NW,317,0.0,2.0,77,0.00,,,0.00,,2013-02-01 07:42:00,
2013-02-01 01:51:00,4.0,-1.0,30.59,NW,317,0.0,0.0,78,0.00,,,0.00,,2013-02-01 07:51:00,
2013-02-01 02:01:00,4.0,-1.0,30.59,NW,317,0.0,0.0,78,0.00,,,0.00,,2013-02-01 08:01:00,
2013-02-01 02:11:00,4.0,-1.0,30.59,NW,317,0.0,0.0,78,0.00,,,0.00,,2013-02-01 08:11:00,
2013-02-01 02:21:00,4.0,-1.0,30.59,NW,317,0.0,0.0,78,0.00,,,0.00,,2013-02-01 08:21:00,
2013-02-01 02:32:00,4.0,-1.0,30.58,NW,317,0.0,0.0,78,0.00,,,0.00,,2013-02-01 08:32:00,
2013-02-01 02:42:00,4.0,-1.0,30.58,NW,317,0.0,0.0,78,0.00,,,0.00,,2013-02-01 08:42:00,
2013-02-01 02:52:00,4.0,-1.0,30.59,NW,317,0.0,2.0,79,0.00,,,0.00,,2013-02-01 08:52:00,
2013-02-01 03:01:00,4.0,-1.0,30.59,NW,317,0.0,3.0,79,0.00,,,0.00,,2013-02-01 09:01:00,
2013-02-01 03:11:00,4.0,-1.0,30.59,NW,317,0.0,3.0,79,0.00,,,0.00,,2013-02-01 09:11:00,
2013-02-01 03:21:00,4.0,-1.0,30.58,NW,317,0.0,0.0,78,0.00,,,0.00,,2013-02-01 09:21:00,
2013-02-01 03:32:00,4.0,-1.0,30.58,NW,317,0.0,0.0,78,0.00,,,0.00,,2013-02-01 09:32:00,
2013-02-01 03:41:00,4.0,-1.0,30.58,NW,317,0.0,0.0,78,0.00,,,0.00,,2013-02-01 09:41:00,
2013-02-01 03:51:00,4.0,-2.0,30.58,NW,317,0.0,0.0,77,0.00,,,0.00,,2013-02-01 09:51:00,
2013-02-01 04:01:00,4.0,-2.0,30.58,NW,317,0.0,0.0,77,0.00,,,0.00,,2013-02-01 10:01:00,
2013-02-01 04:11:00,4.0,-2.0,30.58,NW,317,0.0,0.0,77,0.00,,,0.00,,2013-02-01 10:11:00,
2013-02-01 04:21:00,4.0,-2.0,30.58,NW,317,0.0,0.0,77,0.00,,,0.00,,2013-02-01 10:21:00,
2013-02-01 04:32:00,4.0,-2.0,30.55,NW,318,0.0,1.0,76,0.00,,,0.00,,2013-02-01 10:32:00,
2013-02-01 04:43:00,4.0,-2.0,30.55,NW,318,0.0,1.0,76,0.00,,,0.00,,2013-02-01 10:43:00,
2013-02-01 04:53:00,4.0,-2.0,30.55,NW,318,0.0,1.0,76,0.00,,,0.00,,2013-02-01 10:53:00,
2013-02-01 05:02:00,5.0,-2.0,30.54,NE,38,0.0,5.0,73,0.00,,,0.00,,2013-02-01 11:02:00,
2013-02-01 05:11:00,5.0,-2.0,30.54,NE,38,0.0,5.0,73,0.00,,,0.00,,2013-02-01 11:11:00,
2013-02-01 05:22:00,5.0,-2.0,30.55,NE,39,0.0,0.0,72,0.00,,,0.00,,2013-02-01 11:22:00,
2013-02-01 05:32:00,5.0,-2.0,30.55,NE,39,0.0,0.0,72,0.00,,,0.00,,2013-02-01 11:32:00,
2013-02-01 05:42:00,5.0,-2.0,30.55,NE,39,0.0,0.0,72,0.00,,,0.00,,2013-02-01 11:42:00,
2013-02-01 05:53:00,5.0,-2.0,30.55,NE,39,0.0,0.0,73,0.00,,,0.00,,2013-02-01 11:53:00,
2013-02-01 06:02:00,4.0,-2.0,30.55,NE,39,0.0,0.0,74,0.00,,,0.00,,2013-02-01 12:02:00,
2013-02-01 06:12:00,4.0,-2.0,30.55,NE,39,0.0,0.0,74,0.00,,,0.00,,2013-02-01 12:12:00,
2013-02-01 06:22:00,4.0,-2.0,30.55,NE,38,0.0,0.0,75,0.00,,,0.00,,2013-02-01 12:22:00,
2013-02-01 06:32:00,4.0,-2.0,30.55,NE,39,0.0,0.0,76,0.00,,,0.00,,2013-02-01 12:32:00,
2013-02-01 06:42:00,4.0,-2.0,30.55,NE,39,0.0,0.0,76,0.00,,,0.00,,2013-02-01 12:42:00,
2013-02-01 06:52:00,4.0,-2.0,30.56,NE,39,0.0,0.0,77,0.00,,,0.00,,2013-02-01 12:52:00,
2013-02-01 07:02:00,4.0,-2.0,30.59,NE,39,0.0,0.0,77,0.00,,,0.00,,2013-02-01 13:02:00,
2013-02-01 07:11:00,4.0,-2.0,30.59,NE,39,0.0,0.0,77,0.00,,,0.00,,2013-02-01 13:11:00,
2013-02-01 07:22:00,4.0,-2.0,30.59,NE,38,0.0,1.0,77,0.00,,,0.00,,2013-02-01 13:22:00,
2013-02-01 07:32:00,4.0,-2.0,30.60,NE,39,0.0,0.0,77,0.00,,,0.00,,2013-02-01 13:32:00,
2013-02-01 07:42:00,4.0,-2.0,30.60,NE,39,0.0,0.0,77,0.00,,,0.00,,2013-02-01 13:42:00,
2013-02-01 07:52:00,4.0,-1.0,30.60,NE,39,0.0,0.0,78,0.00,,,0.00,,2013-02-01 13:52:00,
2013-02-01 08:03:00,4.0,-2.0,30.60,NE,38,0.0,0.0,77,0.00,,,0.00,,2013-02-01 14:03:00,
2013-02-01 08:11:00,5.0,-1.0,30.60,NE,38,0.0,0.0,77,0.00,,,0.00,,2013-02-01 14:11:00,
2013-02-01 08:21:00,5.0,-1.0,30.60,NE,38,0.0,0.0,77,0.00,,,0.00,,2013-02-01 14:21:00,
2013-02-01 08:32:00,6.0,0.0,30.61,NE,39,0.0,2.0,76,0.00,,,0.00,,2013-02-01 14:32:00,
2013-02-01 08:42:00,6.0,0.0,30.61,NE,39,0.0,2.0,76,0.00,,,0.00,,2013-02-01 14:42:00,
2013-02-01 08:52:00,7.0,0.0,30.61,NE,39,0.0,2.0,73,0.00,,,0.00,,2013-02-01 14:52:00,
2013-02-01 09:02:00,9.0,1.0,30.60,NE,39,0.0,2.0,70,0.00,,,0.00,,2013-02-01 15:02:00,
2013-02-01 09:12:00,10.0,1.0,30.60,NE,52,0.0,3.0,67,0.00,,,0.00,,2013-02-01 15:12:00,
2013-02-01 09:22:00,10.0,1.0,30.60,NE,52,0.0,3.0,67,0.00,,,0.00,,2013-02-01 15:22:00,
2013-02-01 09:33:00,11.0,2.0,30.60,ESE,117,1.0,5.0,66,0.00,,,0.00,,2013-02-01 15:33:00,
2013-02-01 09:42:00,11.0,2.0,30.60,ESE,117,1.0,5.0,66,0.00,,,0.00,,2013-02-01 15:42:00,
2013-02-01 09:52:00,12.0,2.0,30.59,SE,137,0.0,5.0,64,0.00,,,0.00,,2013-02-01 15:52:00,
2013-02-01 10:02:00,12.0,2.0,30.58,South,177,1.0,8.0,64,0.00,,,0.00,,2013-02-01 16:02:00,
2013-02-01 10:11:00,13.0,3.0,30.57,South,181,1.0,6.0,63,0.00,,,0.00,,2013-02-01 16:11:00,
2013-02-01 10:22:00,13.0,3.0,30.57,South,181,1.0,6.0,63,0.00,,,0.00,,2013-02-01 16:22:00,
2013-02-01 10:33:00,14.0,4.0,30.57,SE,126,2.0,7.0,64,0.00,,,0.00,,2013-02-01 16:33:00,
2013-02-01 10:42:00,16.0,5.0,30.56,South,179,1.0,9.0,62,0.00,,,0.00,,2013-02-01 16:42:00,
2013-02-01 10:52:00,16.0,5.0,30.56,South,179,1.0,9.0,62,0.00,,,0.00,,2013-02-01 16:52:00,
2013-02-01 11:02:00,16.0,5.0,30.55,South,184,4.0,10.0,60,0.00,,,0.00,,2013-02-01 17:02:00,
2013-02-01 11:11:00,16.0,5.0,30.55,South,184,4.0,10.0,60,0.00,,,0.00,,2013-02-01 17:11:00,
2013-02-01 11:22:00,17.0,6.0,30.56,SSE,164,1.0,6.0,60,0.00,,,0.00,,2013-02-01 17:22:00,
2013-02-01 11:32:00,18.0,6.0,30.55,SE,136,2.0,7.0,60,0.00,,,0.00,,2013-02-01 17:32:00,
2013-02-01 11:42:00,18.0,6.0,30.55,SE,136,2.0,7.0,60,0.00,,,0.00,,2013-02-01 17:42:00,
2013-02-01 11:53:00,19.0,7.0,30.54,SSE,163,1.0,7.0,60,0.00,,,0.00,,2013-02-01 17:53:00,
2013-02-01 12:02:00,19.0,7.0,30.53,SE,140,4.0,11.0,58,0.00,,,0.00,,2013-02-01 18:02:00,
2013-02-01 12:12:00,19.0,7.0,30.53,SE,140,4.0,11.0,58,0.00,,,0.00,,2013-02-01 18:12:00,
2013-02-01 12:22:00,20.0,8.0,30.52,ESE,123,0.0,9.0,58,0.00,,,0.00,,2013-02-01 18:22:00,
2013-02-01 12:32:00,20.0,8.0,30.52,ESE,123,0.0,9.0,58,0.00,,,0.00,,2013-02-01 18:32:00,
2013-02-01 12:42:00,20.0,8.0,30.52,ESE,123,0.0,9.0,58,0.00,,,0.00,,2013-02-01 18:42:00,
2013-02-01 12:53:00,21.0,8.0,30.50,ESE,109,0.0,7.0,57,0.00,,,0.00,,2013-02-01 18:53:00,
2013-02-01 13:02:00,21.0,8.0,30.49,SSE,163,4.0,10.0,56,0.00,,,0.00,,2013-02-01 19:02:00,
2013-02-01 13:12:00,21.0,8.0,30.49,SSE,163,4.0,10.0,56,0.00,,,0.00,,2013-02-01 19:12:00,
2013-02-01 13:21:00,21.0,9.0,30.49,SSW,208,3.0,9.0,58,0.00,,,0.00,,2013-02-01 19:21:00,
2013-02-01 13:32:00,21.0,9.0,30.48,SSW,202,4.0,9.0,58,0.00,,,0.00,,2013-02-01 19:32:00,
2013-02-01 13:41:00,21.0,9.0,30.48,SSW,202,4.0,9.0,58,0.00,,,0.00,,2013-02-01 19:41:00,
2013-02-01 13:52:00,21.0,8.0,30.47,SE,137,2.0,6.0,57,0.00,,,0.00,,2013-02-01 19:52:00,
2013-02-01 14:02:00,22.0,10.0,30.47,SSE,148,2.0,6.0,59,0.00,,,0.00,,2013-02-01 20:02:00,
2013-02-01 14:11:00,22.0,10.0,30.46,South,186,2.0,11.0,58,0.00,,,0.00,,2013-02-01 20:11:00,
2013-02-01 14:21:00,22.0,10.0,30.46,South,186,2.0,11.0,58,0.00,,,0.00,,2013-02-01 20:21:00,
2013-02-01 14:31:00,23.0,10.0,30.45,SE,140,1.0,9.0,57,0.00,,,0.00,,2013-02-01 20:31:00,
2013-02-01 14:41:00,23.0,10.0,30.45,SE,140,1.0,9.0,57,0.00,,,0.00,,2013-02-01 20:41:00,
2013-02-01 14:52:00,23.0,10.0,30.45,SE,140,3.0,9.0,56,0.00,,,0.00,,2013-02-01 20:52:00,
2013-02-01 15:02:00,23.0,10.0,30.43,SSE,150,3.0,8.0,57,0.00,,,0.00,,2013-02-01 21:02:00,
2013-02-01 15:11:00,23.0,10.0,30.43,SSE,150,3.0,8.0,57,0.00,,,0.00,,2013-02-01 21:11:00,
2013-02-01 15:21:00,23.0,10.0,30.42,SSE,147,2.0,10.0,58,0.00,,,0.00,,2013-02-01 21:21:00,
2013-02-01 15:32:00,23.0,10.0,30.42,SE,127,3.0,11.0,58,0.00,,,0.00,,2013-02-01 21:32:00,
2013-02-01 15:41:00,23.0,10.0,30.42,SE,127,3.0,11.0,58,0.00,,,0.00,,2013-02-01 21:41:00,
2013-02-01 15:52:00,23.0,10.0,30.41,SSW,199,1.0,11.0,56,0.00,,,0.00,,2013-02-01 21:52:00,
2013-02-01 16:02:00,23.0,10.0,30.41,SE,136,1.0,7.0,56,0.00,,,0.00,,2013-02-01 22:02:00,
2013-02-01 16:11:00,23.0,10.0,30.41,SE,136,1.0,7.0,56,0.00,,,0.00,,2013-02-01 22:11:00,
2013-02-01 16:21:00,23.0,10.0,30.40,SSW,200,3.0,8.0,56,0.00,,,0.00,,2013-02-01 22:21:00,
2013-02-01 16:32:00,24.0,11.0,30.39,South,169,2.0,8.0,56,0.00,,,0.00,,2013-02-01 22:32:00,
2013-02-01 16:42:00,24.0,11.0,30.39,South,169,2.0,8.0,56,0.00,,,0.00,,2013-02-01 22:42:00,
2013-02-01 16:52:00,24.0,11.0,30.38,SE,136,2.0,7.0,56,0.00,,,0.00,,2013-02-01 22:52:00,
2013-02-01 17:01:00,24.0,11.0,30.38,SSE,159,0.0,8.0,56,0.00,,,0.00,,2013-02-01 23:01:00,
2013-02-01 17:11:00,24.0,11.0,30.38,SSE,159,0.0,8.0,56,0.00,,,0.00,,2013-02-01 23:11:00,
2013-02-01 17:21:00,23.0,10.0,30.37,SE,140,0.0,9.0,56,0.00,,,0.00,,2013-02-01 23:21:00,
2013-02-01 17:31:00,23.0,10.0,30.37,South,171,0.0,8.0,56,0.00,,,0.00,,2013-02-01 23:31:00,
2013-02-01 17:41:00,23.0,10.0,30.37,South,171,0.0,8.0,56,0.00,,,0.00,,2013-02-01 23:41:00,
2013-02-01 17:52:00,23.0,10.0,30.36,SSE,151,0.0,8.0,57,0.00,,,0.00,,2013-02-01 23:52:00,
2013-02-01 18:02:00,23.0,10.0,30.35,SE,141,2.0,8.0,58,0.00,,,0.00,,2013-02-02 00:02:00,
2013-02-01 18:11:00,23.0,10.0,30.35,SE,141,2.0,8.0,58,0.00,,,0.00,,2013-02-02 00:11:00,
2013-02-01 18:21:00,23.0,11.0,30.35,SE,140,0.0,9.0,59,0.00,,,0.00,,2013-02-02 00:21:00,
2013-02-01 18:32:00,23.0,11.0,30.34,SSE,153,3.0,7.0,59,0.00,,,0.00,,2013-02-02 00:32:00,
2013-02-01 18:42:00,23.0,11.0,30.34,SSE,153,3.0,7.0,59,0.00,,,0.00,,2013-02-02 00:42:00,
2013-02-01 18:52:00,23.0,11.0,30.34,SE,137,1.0,7.0,60,0.00,,,0.00,,2013-02-02 00:52:00,
2013-02-01 19:02:00,23.0,12.0,30.34,SE,127,0.0,6.0,61,0.00,,,0.00,,2013-02-02 01:02:00,
2013-02-01 19:11:00,23.0,12.0,30.34,SE,127,0.0,6.0,61,0.00,,,0.00,,2013-02-02 01:11:00,
2013-02-01 19:21:00,23.0,12.0,30.34,SSE,153,1.0,7.0,61,0.00,,,0.00,,2013-02-02 01:21:00,
2013-02-01 19:32:00,23.0,12.0,30.36,SSE,147,0.0,10.0,62,0.00,,,0.00,,2013-02-02 01:32:00,
2013-02-01 19:41:00,23.0,12.0,30.36,SSE,147,0.0,10.0,62,0.00,,,0.00,,2013-02-02 01:41:00,
2013-02-01 19:52:00,22.0,12.0,30.35,SSE,163,1.0,7.0,64,0.00,,,0.00,,2013-02-02 01:52:00,
2013-02-01 20:01:00,22.0,12.0,30.34,SE,146,0.0,4.0,65,0.00,,,0.00,,2013-02-02 02:01:00,
2013-02-01 20:11:00,22.0,12.0,30.34,SE,146,0.0,4.0,65,0.00,,,0.00,,2013-02-02 02:11:00,
2013-02-01 20:21:00,22.0,12.0,30.33,SSE,164,0.0,6.0,64,0.00,,,0.00,,2013-02-02 02:21:00,
2013-02-01 20:32:00,22.0,12.0,30.34,SSE,167,1.0,6.0,64,0.00,,,0.00,,2013-02-02 02:32:00,
2013-02-01 20:42:00,22.0,12.0,30.34,SSE,167,1.0,6.0,64,0.00,,,0.00,,2013-02-02 02:42:00,
2013-02-01 20:52:00,22.0,12.0,30.33,SSE,148,0.0,7.0,64,0.00,,,0.00,,2013-02-02 02:52:00,
2013-02-01 21:02:00,22.0,12.0,30.33,South,183,1.0,9.0,64,0.00,,,0.00,,2013-02-02 03:02:00,
2013-02-01 21:11:00,22.0,12.0,30.33,South,183,1.0,9.0,64,0.00,,,0.00,,2013-02-02 03:11:00,
2013-02-01 21:21:00,22.0,12.0,30.33,South,171,1.0,5.0,65,0.00,,,0.00,,2013-02-02 03:21:00,
2013-02-01 21:32:00,22.0,12.0,30.33,South,179,0.0,7.0,65,0.00,,,0.00,,2013-02-02 03:32:00,
2013-02-01 21:42:00,22.0,12.0,30.33,SSW,193,0.0,8.0,65,0.00,,,0.00,,2013-02-02 03:42:00,
2013-02-01 21:52:00,22.0,12.0,30.33,SSW,193,0.0,8.0,65,0.00,,,0.00,,2013-02-02 03:52:00,
2013-02-01 22:01:00,22.0,12.0,30.32,SSW,202,0.0,3.0,65,0.00,,,0.00,,2013-02-02 04:01:00,
2013-02-01 22:11:00,22.0,12.0,30.32,SSW,202,0.0,3.0,65,0.00,,,0.00,,2013-02-02 04:11:00,
2013-02-01 22:21:00,22.0,12.0,30.32,SSW,192,0.0,6.0,66,0.00,,,0.00,,2013-02-02 04:21:00,
2013-02-01 22:32:00,22.0,12.0,30.32,SSW,192,0.0,3.0,65,0.00,,,0.00,,2013-02-02 04:32:00,
2013-02-01 22:42:00,22.0,12.0,30.32,SSW,192,0.0,3.0,65,0.00,,,0.00,,2013-02-02 04:42:00,
2013-02-01 22:52:00,22.0,12.0,30.31,South,169,0.0,5.0,65,0.00,,,0.00,,2013-02-02 04:52:00,
2013-02-01 23:03:00,22.0,12.0,30.30,SE,142,0.0,4.0,64,0.00,,,0.00,,2013-02-02 05:03:00,
2013-02-01 23:12:00,22.0,12.0,30.30,SE,142,0.0,4.0,64,0.00,,,0.00,,2013-02-02 05:12:00,
2013-02-01 23:22:00,23.0,13.0,30.30,SE,139,0.0,5.0,64,0.00,,,0.00,,2013-02-02 05:22:00,
2013-02-01 23:33:00,23.0,13.0,30.29,SSE,156,2.0,8.0,64,0.00,,,0.00,,2013-02-02 05:33:00,
2013-02-01 23:41:00,23.0,13.0,30.29,SSE,156,2.0,8.0,64,0.00,,,0.00,,2013-02-02 05:41:00,
2013-02-01 23:52:00,23.0,13.0,30.29,SSW,199,0.0,7.0,64,0.00,,,0.00,,2013-02-02 05:52:00,